»·PEaware :: N16RD KLGB-KMYF

N16RD :: KLGB-KMYF

FLIGHT INFORMATION

Flight Status: Arrived
Operator: Privately registered:
United States
More flights under this callsign
Pilot: Brett B. (12105)
Aircraft: CESSNA R182 TURBO SKYLANE
(C82R)
More flights by this aircraft type
Origin: KLGB Long Beach
United States
Destination: KMYF Montgomery
United States
More flights between these airports :: More routes between these airports
Route: +SLI V64 V363 DANAH V23 MZB
File this flight plan on PilotEdge
Remarks: alphabet challenge
Altitude:
(Current/Filed)
7,000ft
Speed:
(Current/Filed)
145kts
Departed: 27-Oct-17 06:12 PM
Arrived: 27-Oct-17 06:56 PM
Distance/Time
Traveled:
79nm/0:44
Distance/Time
To Go:
Arrived

Flight Plot

Page will automatically refresh every two minutes.


Map Options




Map Legend


Flown Route
Filed Route
Departure Airport
Arrival Airport
Navaid (VOR, NDB)
Fix

Horizontal Profiles

Position Reports

Time Latitude Longitude Heading Altitude Ground
Speed
27-Oct-17 18:03 33.821103 -118.144384 87 63ft 0kts
27-Oct-17 18:04 33.821103 -118.144384 87 63ft 0kts
27-Oct-17 18:05 33.821103 -118.144384 87 63ft 0kts
27-Oct-17 18:06 33.821103 -118.144384 87 63ft 0kts
27-Oct-17 18:07 33.821103 -118.144384 87 63ft 0kts
27-Oct-17 18:08 33.821103 -118.144384 87 63ft 0kts
27-Oct-17 18:09 33.821103 -118.144384 87 63ft 0kts
27-Oct-17 18:10 33.821103 -118.144384 87 63ft 0kts
27-Oct-17 18:11 33.821808 -118.143901 36 63ft 5kts
27-Oct-17 18:12 33.822112 -118.143309 1 63ft 0kts
27-Oct-17 18:13 33.822112 -118.143309 1 63ft 0kts
27-Oct-17 18:14 33.822113 -118.143309 1 63ft 0kts
27-Oct-17 18:15 33.822114 -118.143309 1 63ft 0kts
27-Oct-17 18:16 33.822130 -118.143308 1 63ft 4kts
27-Oct-17 18:17 33.822413 -118.163875 269 547ft 102kts
27-Oct-17 18:18 33.805439 -118.188976 195 1547ft 129kts
27-Oct-17 18:19 33.768517 -118.198639 195 2362ft 139kts
27-Oct-17 18:20 33.745660 -118.180468 63 3171ft 125kts
27-Oct-17 18:21 33.758730 -118.142653 61 3952ft 131kts
27-Oct-17 18:22 33.773172 -118.101649 61 4754ft 133kts
27-Oct-17 18:23 33.784095 -118.057158 113 4996ft 165kts
27-Oct-17 18:24 33.753465 -118.015201 111 4996ft 169kts
27-Oct-17 18:25 33.749323 -117.960606 86 4997ft 164kts
27-Oct-17 18:26 33.749224 -117.905883 90 4998ft 165kts
27-Oct-17 18:27 33.733898 -117.852752 106 5004ft 169kts
27-Oct-17 18:28 33.729965 -117.798866 62 4998ft 162kts
27-Oct-17 18:29 33.747670 -117.750023 61 5056ft 155kts
27-Oct-17 18:30 33.728703 -117.718056 172 5837ft 151kts
27-Oct-17 18:31 33.687830 -117.721712 192 6627ft 144kts
27-Oct-17 18:32 33.647006 -117.729828 180 7020ft 162kts
27-Oct-17 18:33 33.600909 -117.720058 171 7011ft 171kts
27-Oct-17 18:34 33.553540 -117.711608 171 7008ft 171kts
27-Oct-17 18:35 33.506314 -117.703012 171 7007ft 172kts
27-Oct-17 18:36 33.464769 -117.679872 132 7011ft 170kts
27-Oct-17 18:37 33.431131 -117.639836 132 7004ft 170kts
27-Oct-17 18:38 33.397573 -117.599833 132 7002ft 170kts
27-Oct-17 18:39 33.363983 -117.559783 132 7000ft 170kts
27-Oct-17 18:40 33.331130 -117.520628 132 7001ft 170kts
27-Oct-17 18:41 33.297581 -117.480671 132 7005ft 170kts
27-Oct-17 18:42 33.263877 -117.440557 132 7009ft 170kts
27-Oct-17 18:43 33.225703 -117.407506 151 7016ft 172kts
27-Oct-17 18:44 33.182043 -117.384014 155 7021ft 172kts
27-Oct-17 18:45 33.137295 -117.362953 160 7020ft 172kts
27-Oct-17 18:46 33.090419 -117.348044 171 6714ft 182kts
27-Oct-17 18:47 33.041599 -117.330787 160 5906ft 173kts
27-Oct-17 18:48 32.999467 -117.308693 141 5101ft 163kts
27-Oct-17 18:49 32.963659 -117.276015 140 4303ft 162kts
27-Oct-17 18:50 32.930709 -117.239351 130 3507ft 162kts
27-Oct-17 18:51 32.900311 -117.201023 130 2991ft 150kts
27-Oct-17 18:52 32.872907 -117.167402 133 2962ft 139kts
27-Oct-17 18:53 32.842841 -117.137827 134 2746ft 144kts
27-Oct-17 18:54 32.815501 -117.102862 157 2453ft 165kts
27-Oct-17 18:55 32.811840 -117.128970 295 1311ft 68kts
27-Oct-17 18:56 32.824294 -117.150428 349 1159ft 101kts
27-Oct-17 18:57 32.836112 -117.122575 94 2081ft 119kts
27-Oct-17 18:58 32.825447 -117.085399 158 1537ft 123kts
27-Oct-17 18:59 32.806342 -117.100530 270 1402ft 92kts
27-Oct-17 19:00 32.811059 -117.126765 294 727ft 67kts
27-Oct-17 19:01 32.816094 -117.140146 255 430ft 14kts
27-Oct-17 19:02 32.815231 -117.142509 244 430ft 21kts
27-Oct-17 19:03 32.812966 -117.145808 154 430ft 20kts
27-Oct-17 19:04 32.811863 -117.144844 1 430ft 0kts
27-Oct-17 19:05 32.811863 -117.144844 1 430ft 0kts
27-Oct-17 19:06 32.811863 -117.144844 1 430ft 0kts
27-Oct-17 19:07 32.811863 -117.144844 1 430ft 0kts
27-Oct-17 19:08 32.811863 -117.144844 1 430ft 0kts
27-Oct-17 19:09 32.811863 -117.144844 1 430ft 0kts
27-Oct-17 19:10 32.811863 -117.144844 1 430ft 0kts
27-Oct-17 19:11 32.811863 -117.144844 1 430ft 0kts
27-Oct-17 19:12 32.811863 -117.144844 1 430ft 0kts
27-Oct-17 19:13 32.811863 -117.144844 1 430ft 0kts
27-Oct-17 19:14 32.811863 -117.144844 1 430ft 0kts
27-Oct-17 19:15 32.811863 -117.144844 1 430ft 0kts

Navigation Log

Ident Type
Flight plan parsing failed, navigation log unavailable